Sayre, Pennsylvania
Current Conditions -  °F | °C
As of 10:53 PM on Thursday 18 Dec 2014 (Local Time) from KELM Reporting Station
Overcast Overcast  
Wind Chill: 29°   Ceiling: 2100
Heat Index: 33°   Visibility: 10mi
Dew Point: 27°   Wind: 5mph
Humidity: 78%   Direction: 300°WNW
Pressure: 30"   Gusts: NA
Location:  41.99°N, 76.53°W
Report Text: KELM 190353Z 30004KT 10SM OVC021 01/M03 A3000 RMK AO2 SLP169 T00061028
Loading
Personal Weather Stations






























Interactive Weather Map New forecast layout! Learn more

10-Day Weather Forecast

Advertisements
Track Severe Weather on mobile